Impacts TAF Board
For situational awareness. Not to be used for flight planning purposes.
IDs:

KINK - Wink/Winkler Cnty, TX, US

Issued at 1123 UTC 30 Oct 2020
Updated at 1711 UTC 30 Oct 2020
Potential Impact None Slight Moderate High
Time1653Z 30/18Z 30/19Z 30/20Z 30/21Z 30/22Z 30/23Z 31/00Z 31/01Z 31/02Z 31/03Z 31/04Z 31/05Z 31/06Z>>
Type OBS PRVL PRVL PRVL PRVL PRVL PRVL PRVL PRVL PRVL PRVL PRVL PRVL PRVL
VIS 10 >6 >6 >6 >6 >6 >6 >6 >6 >6 >6 >6 >6 >6
CIG -- -- -- -- -- -- -- -- -- -- -- -- -- --
Cover CLR FEW FEW FEW FEW FEW FEW FEW FEW FEW FEW FEW FEW FEW
FltCat VFR VFR VFR VFR VFR VFR VFR VFR VFR VFR VFR VFR VFR VFR
WX -- -- -- -- -- -- -- -- -- -- -- -- -- --
WDir 150 150 150 150 150 150 150 150 150 150 150 150 150 150
WSpd 8 9 9 9 9 9 9 9 9 9 9 9 9 9
WGst -- -- -- -- -- -- -- -- -- -- -- -- -- --
Raw TAF
KINK 301123Z 3012/3112 05005KT P6SM FEW250
  FM301500 15009KT P6SM FEW250


Raw METAR
KINK 301653Z AUTO 15008KT 10SM CLR 16/02 A3029 RMK AO2 SLP238 T01610017
KINK 301553Z AUTO 13007KT 10SM CLR 12/02 A3030 RMK AO2 SLP247 T01220022
KINK 301453Z AUTO 08003KT 10SM CLR 08/01 A3031 RMK AO2 SLP250 T00830011 53010

METAR Board
Radar Display
Forecast Discussion
For situational awareness. Not to be used for flight planning purposes.